createdAt,value
2022-09-23T00:07:06.894Z,1007.143
2022-09-23T00:37:23.398Z,1007.084
2022-09-23T01:07:39.833Z,1006.918
2022-09-23T01:37:56.606Z,1006.6469999999999
2022-09-23T02:08:12.953Z,1006.493
2022-09-23T02:38:28.469Z,1006.2669999999999
2022-09-23T03:08:46.755Z,1006.1039999999999
2022-09-23T03:39:05.051Z,1006.091
2022-09-23T04:09:22.529Z,1005.8960000000001
2022-09-23T04:39:39.590Z,1005.643
2022-09-23T05:09:57.224Z,1005.819
2022-09-23T05:40:15.926Z,1005.9019999999999
2022-09-23T06:10:34.760Z,1005.878
2022-09-23T06:40:55.399Z,1005.883
2022-09-23T07:11:15.513Z,1005.808
2022-09-23T07:41:38.985Z,1005.794
2022-09-23T08:42:37.305Z,1005.8969999999999
2022-09-23T09:13:01.521Z,1005.895
2022-09-23T09:43:22.589Z,1005.4680000000001
2022-09-23T10:13:48.899Z,1005.297
2022-09-23T10:44:10.487Z,1005.23
2022-09-23T12:15:01.431Z,1004.475
2022-09-23T12:45:22.813Z,1004.297
2022-09-23T13:15:29.437Z,1004.205
2022-09-23T13:45:38.815Z,1003.8510000000001
2022-09-23T14:15:54.822Z,1003.573
2022-09-23T14:46:13.379Z,1003.421
2022-09-23T15:16:33.436Z,1003.08
2022-09-23T15:46:57.245Z,1003.028
2022-09-23T16:17:15.492Z,1002.99
2022-09-23T16:47:39.664Z,1002.812
2022-09-23T17:17:59.516Z,1002.795
2022-09-23T17:48:17.519Z,1002.681
2022-09-23T18:18:34.493Z,1002.702
2022-09-23T18:48:51.336Z,1002.672
2022-09-23T19:19:07.576Z,1002.5419999999999
2022-09-23T19:49:26.559Z,1002.577
2022-09-23T20:19:43.002Z,1002.312
2022-09-23T20:50:00.745Z,1002.195
2022-09-23T21:20:16.190Z,1002.11
2022-09-23T21:50:34.377Z,1002.04
2022-09-23T22:21:01.600Z,1002.158
2022-09-23T22:51:22.858Z,1002.132
2022-09-23T23:21:42.549Z,1001.796
2022-09-23T23:51:59.985Z,1001.6469999999999
